Time;durP1;ratioP1;P1;durP2;ratioP2;P2;SDS_P1;SDS_P2;PMS_P1;PMS_P2;Temp;Humidity;BMP_temperature;BMP_pressure;BME280_temperature;BME280_humidity;BME280_pressure;Samples;Min_cycle;Max_cycle;Signal;HPM_P1;HPM_P2
2023/03/15 00:02:04;;;;;;;2.63;2.47;;;6.90;67.10;;;;;;4960468;28;20903;-76
2023/03/15 00:04:31;;;;;;;4.07;2.60;;;6.90;67.20;;;;;;4960281;28;20674;-76
2023/03/15 00:06:57;;;;;;;3.93;2.57;;;6.80;67.50;;;;;;4954821;28;20197;-76
2023/03/15 00:09:23;;;;;;;4.77;2.73;;;6.80;67.40;;;;;;4958890;28;20216;-75
2023/03/15 00:11:51;;;;;;;4.10;2.73;;;6.80;67.20;;;;;;4960561;28;20191;-76
2023/03/15 00:14:17;;;;;;;4.33;3.03;;;6.80;67.50;;;;;;4960909;28;20750;-75
2023/03/15 00:16:43;;;;;;;5.90;2.50;;;6.80;67.60;;;;;;4956351;28;20194;-75
2023/03/15 00:19:10;;;;;;;4.70;2.83;;;6.80;67.90;;;;;;4962443;28;20179;-75
2023/03/15 00:21:35;;;;;;;4.27;3.43;;;6.80;68.00;;;;;;4954460;28;20187;-75
2023/03/15 00:24:02;;;;;;;2.63;2.43;;;6.70;68.10;;;;;;4962141;28;20229;-75
2023/03/15 00:26:28;;;;;;;3.00;2.90;;;6.70;67.80;;;;;;4955855;28;20186;-75
2023/03/15 00:28:54;;;;;;;3.97;3.20;;;6.70;67.90;;;;;;4959791;28;20312;-75
2023/03/15 00:31:22;;;;;;;4.53;3.17;;;6.70;68.20;;;;;;4959031;28;20434;-75
2023/03/15 00:33:48;;;;;;;3.93;2.77;;;6.70;68.00;;;;;;4959506;28;20305;-75
2023/03/15 00:36:14;;;;;;;3.20;2.47;;;6.70;67.80;;;;;;4959382;28;20306;-75
2023/03/15 00:38:42;;;;;;;6.80;3.03;;;6.80;67.30;;;;;;4959985;28;20192;-75
2023/03/15 00:41:13;;;;;;;3.13;2.87;;;6.80;67.30;;;;;;4957318;28;20182;-75
2023/03/15 00:43:40;;;;;;;8.37;3.77;;;6.80;67.70;;;;;;4956745;28;20211;-75
2023/03/15 00:46:06;;;;;;;3.40;2.90;;;6.90;67.90;;;;;;4959947;28;20225;-75
2023/03/15 00:48:34;;;;;;;3.50;3.13;;;6.80;67.80;;;;;;4959084;28;20183;-75
2023/03/15 00:51:04;;;;;;;3.03;2.80;;;6.80;67.10;;;;;;4955246;28;20187;-75
2023/03/15 00:53:29;;;;;;;7.30;3.40;;;6.90;66.10;;;;;;4962609;28;20197;-75
2023/03/15 00:55:55;;;;;;;4.90;3.07;;;6.80;67.30;;;;;;4958012;28;20795;-75
2023/03/15 00:58:21;;;;;;;4.07;3.10;;;6.80;67.80;;;;;;4959316;28;20567;-75
2023/03/15 01:00:47;;;;;;;3.40;3.10;;;6.80;67.70;;;;;;4951670;28;20230;-75
2023/03/15 01:03:13;;;;;;;5.13;3.10;;;6.80;68.00;;;;;;4958487;28;20218;-75
2023/03/15 01:05:39;;;;;;;3.17;2.70;;;6.80;68.20;;;;;;4958809;28;20926;-75
2023/03/15 01:08:05;;;;;;;2.80;2.33;;;6.70;68.20;;;;;;4954871;28;20171;-75
2023/03/15 01:10:34;;;;;;;2.70;2.50;;;6.80;68.20;;;;;;4956737;28;20588;-75
2023/03/15 01:12:59;;;;;;;6.97;3.33;;;6.80;68.10;;;;;;4957494;28;20187;-75
2023/03/15 01:15:25;;;;;;;5.60;2.87;;;6.80;68.20;;;;;;4955456;28;20198;-75
2023/03/15 01:17:51;;;;;;;3.17;2.87;;;6.80;67.90;;;;;;4960411;28;20241;-75
2023/03/15 01:20:17;;;;;;;3.30;2.77;;;6.90;67.60;;;;;;4960505;28;20187;-75
2023/03/15 01:22:42;;;;;;;2.47;2.27;;;6.90;67.90;;;;;;4961370;28;20720;-75
2023/03/15 01:25:09;;;;;;;2.87;2.60;;;6.90;68.00;;;;;;4957108;28;20794;-75
2023/03/15 01:27:34;;;;;;;2.73;2.50;;;7.00;67.70;;;;;;4955730;28;20186;-75
2023/03/15 01:30:00;;;;;;;3.10;2.80;;;7.00;67.50;;;;;;4958303;28;20214;-75
2023/03/15 01:32:26;;;;;;;4.37;2.63;;;7.00;67.50;;;;;;4956255;28;20198;-75
2023/03/15 01:34:52;;;;;;;4.97;3.13;;;7.00;67.70;;;;;;4961957;28;20269;-75
2023/03/15 01:37:18;;;;;;;3.60;3.13;;;7.00;67.90;;;;;;4960392;28;20293;-75
2023/03/15 01:39:44;;;;;;;4.47;2.97;;;6.90;68.00;;;;;;4957663;28;20255;-75
2023/03/15 01:42:10;;;;;;;2.90;2.67;;;6.90;68.00;;;;;;4955717;28;20656;-75
2023/03/15 01:44:55;;;;;;;4.63;2.70;;;6.90;68.10;;;;;;4957232;28;20677;-75
2023/03/15 01:47:24;;;;;;;2.43;2.17;;;6.90;68.10;;;;;;4955887;28;20183;-75
2023/03/15 01:49:57;;;;;;;3.10;2.60;;;6.90;68.10;;;;;;4957227;28;20190;-76
2023/03/15 01:52:29;;;;;;;4.97;3.10;;;6.90;67.50;;;;;;4956997;28;20201;-75
2023/03/15 01:55:13;;;;;;;2.67;2.27;;;6.90;67.50;;;;;;4956021;28;20194;-75
2023/03/15 01:57:49;;;;;;;3.37;2.63;;;6.90;67.50;;;;;;4953902;28;20191;-75
2023/03/15 02:00:18;;;;;;;4.00;2.90;;;6.90;67.60;;;;;;4958313;28;20182;-75
2023/03/15 02:02:51;;;;;;;3.27;2.60;;;6.90;67.80;;;;;;4958543;28;20230;-75
2023/03/15 02:05:25;;;;;;;7.20;3.00;;;6.90;67.80;;;;;;4959463;28;20179;-75
2023/03/15 02:07:53;;;;;;;5.20;3.03;;;6.90;67.90;;;;;;4956195;28;20269;-75
2023/03/15 02:10:34;;;;;;;3.43;2.87;;;6.90;68.00;;;;;;4958882;28;20183;-75
2023/03/15 02:13:01;;;;;;;2.93;2.73;;;6.90;68.00;;;;;;4958968;28;20214;-75
2023/03/15 02:15:26;;;;;;;2.57;2.37;;;6.90;68.10;;;;;;4957855;28;20186;-75
2023/03/15 02:17:52;;;;;;;2.43;2.33;;;6.90;68.20;;;;;;4958778;28;20197;-75
2023/03/15 02:20:18;;;;;;;2.17;2.07;;;6.90;68.30;;;;;;4958861;28;20274;-75
2023/03/15 02:22:54;;;;;;;3.73;2.77;;;6.90;68.40;;;;;;4958122;28;20179;-75
2023/03/15 02:25:33;;;;;;;2.50;2.30;;;6.90;68.40;;;;;;4962732;28;20182;-75
2023/03/15 02:27:59;;;;;;;4.10;2.40;;;6.90;68.40;;;;;;4961826;28;20190;-75
2023/03/15 02:30:25;;;;;;;1.77;1.67;;;6.90;68.30;;;;;;4958562;28;20656;-75
2023/03/15 02:32:51;;;;;;;3.07;2.37;;;6.90;68.50;;;;;;4962171;28;20189;-75
2023/03/15 02:35:31;;;;;;;1.97;1.87;;;6.90;68.50;;;;;;4959344;28;20234;-75
2023/03/15 02:37:58;;;;;;;3.90;2.73;;;6.90;68.50;;;;;;4961152;28;20190;-75
2023/03/15 02:40:28;;;;;;;2.17;2.07;;;6.80;68.40;;;;;;4961452;28;20620;-75
2023/03/15 02:43:02;;;;;;;2.37;2.23;;;6.80;67.90;;;;;;4960161;28;20194;-75
2023/03/15 02:45:30;;;;;;;1.83;1.73;;;6.80;67.70;;;;;;4957858;28;20574;-75
2023/03/15 02:47:57;;;;;;;1.73;1.57;;;6.80;67.30;;;;;;4954770;28;20192;-75
2023/03/15 02:50:23;;;;;;;4.43;1.87;;;6.70;67.20;;;;;;4961574;28;20187;-76
2023/03/15 02:52:48;;;;;;;2.60;2.07;;;6.70;67.50;;;;;;4962842;28;20190;-75
2023/03/15 02:55:14;;;;;;;3.17;1.97;;;6.70;67.80;;;;;;4960317;28;20179;-75
2023/03/15 02:57:40;;;;;;;3.27;2.23;;;6.60;68.00;;;;;;4961471;28;20218;-75
2023/03/15 03:00:13;;;;;;;2.00;1.90;;;6.60;68.10;;;;;;4961693;28;20265;-75
2023/03/15 03:02:40;;;;;;;4.63;2.30;;;6.60;67.60;;;;;;4966762;28;20191;-75
2023/03/15 03:05:06;;;;;;;3.70;2.17;;;6.50;67.10;;;;;;4960686;28;20195;-75
2023/03/15 03:07:32;;;;;;;2.07;1.97;;;6.40;67.00;;;;;;4960744;28;20675;-75
2023/03/15 03:09:57;;;;;;;2.73;2.10;;;6.40;67.00;;;;;;4958343;28;20183;-75
2023/03/15 03:12:23;;;;;;;2.30;1.70;;;6.30;67.20;;;;;;4957755;28;20701;-75
2023/03/15 03:14:49;;;;;;;3.97;1.80;;;6.30;67.30;;;;;;4957623;28;20205;-75
2023/03/15 03:17:15;;;;;;;1.90;1.80;;;6.30;67.40;;;;;;4959251;28;20186;-75
2023/03/15 03:19:40;;;;;;;2.30;2.03;;;6.30;67.60;;;;;;4957914;28;20187;-75
2023/03/15 03:22:06;;;;;;;1.80;1.60;;;6.30;67.80;;;;;;4961167;28;20194;-75
2023/03/15 03:24:32;;;;;;;4.20;1.70;;;6.20;67.70;;;;;;4957814;28;20214;-75
2023/03/15 03:26:58;;;;;;;1.97;1.80;;;6.20;67.80;;;;;;4958819;28;20183;-75
2023/03/15 03:29:24;;;;;;;2.87;2.00;;;6.30;67.70;;;;;;4959678;28;20576;-75
2023/03/15 03:31:50;;;;;;;2.27;1.77;;;6.30;67.70;;;;;;4958334;28;20189;-75
2023/03/15 03:34:16;;;;;;;2.70;1.90;;;6.30;67.70;;;;;;4955337;28;20210;-75
2023/03/15 03:36:42;;;;;;;2.07;1.90;;;6.30;67.70;;;;;;4957896;28;20202;-75
2023/03/15 03:39:08;;;;;;;1.13;1.13;;;6.30;67.70;;;;;;4960839;28;20273;-75
2023/03/15 03:41:34;;;;;;;2.20;1.30;;;6.40;67.60;;;;;;4959706;28;20684;-75
2023/03/15 03:43:59;;;;;;;1.40;1.30;;;6.40;67.50;;;;;;4960940;28;20218;-75
2023/03/15 03:46:27;;;;;;;1.10;1.10;;;6.40;67.40;;;;;;4960204;28;20206;-75
2023/03/15 03:48:53;;;;;;;2.00;1.50;;;6.50;67.30;;;;;;4959752;28;20219;-75
2023/03/15 03:51:19;;;;;;;1.73;1.40;;;6.50;67.10;;;;;;4961345;28;20191;-75
2023/03/15 03:53:44;;;;;;;3.23;1.50;;;6.50;66.80;;;;;;4963953;28;21049;-75
2023/03/15 03:56:10;;;;;;;2.87;1.53;;;6.50;66.60;;;;;;4959400;28;20185;-74
2023/03/15 03:58:36;;;;;;;1.27;1.17;;;6.50;66.30;;;;;;4957574;28;20191;-74
2023/03/15 04:01:04;;;;;;;1.77;1.23;;;6.50;66.10;;;;;;4957628;28;20719;-75
2023/03/15 04:03:30;;;;;;;1.43;1.33;;;6.50;66.00;;;;;;4956318;28;20210;-75
2023/03/15 04:05:57;;;;;;;2.00;1.80;;;6.50;66.00;;;;;;4957431;28;20190;-75
2023/03/15 04:08:23;;;;;;;1.60;1.43;;;6.50;66.30;;;;;;4961014;28;20679;-75
2023/03/15 04:10:54;;;;;;;2.00;1.90;;;6.60;66.90;;;;;;4958774;28;20190;-75
2023/03/15 04:13:20;;;;;;;2.53;1.33;;;6.60;67.00;;;;;;4954357;28;20197;-75
2023/03/15 04:15:46;;;;;;;1.50;1.43;;;6.50;67.30;;;;;;4956264;28;20198;-75
2023/03/15 04:18:13;;;;;;;2.00;1.80;;;6.50;67.10;;;;;;4958916;28;20273;-75
2023/03/15 04:20:45;;;;;;;3.10;1.77;;;6.60;66.90;;;;;;4957038;28;20205;-75
2023/03/15 04:23:22;;;;;;;2.83;1.20;;;6.50;66.80;;;;;;4958937;28;20284;-74
2023/03/15 04:25:48;;;;;;;1.97;1.50;;;6.50;66.20;;;;;;4959426;28;20186;-74
2023/03/15 04:28:14;;;;;;;2.20;1.30;;;6.50;66.30;;;;;;4959387;28;20187;-75
2023/03/15 04:30:41;;;;;;;1.77;1.00;;;6.50;65.80;;;;;;4958692;28;20589;-75
2023/03/15 04:33:08;;;;;;;0.87;0.87;;;6.50;65.60;;;;;;4954753;28;20197;-75
2023/03/15 04:35:36;;;;;;;2.40;1.47;;;6.50;65.70;;;;;;4954440;28;20182;-75
2023/03/15 04:38:02;;;;;;;2.20;1.60;;;6.50;65.90;;;;;;4958024;28;20289;-75
2023/03/15 04:40:29;;;;;;;1.70;1.57;;;6.50;66.50;;;;;;4958236;28;20194;-74
2023/03/15 04:42:55;;;;;;;1.30;1.20;;;6.50;66.90;;;;;;4956788;28;20217;-74
2023/03/15 04:45:24;;;;;;;1.77;1.37;;;6.50;66.80;;;;;;4956150;28;20651;-74
2023/03/15 04:47:51;;;;;;;1.77;1.40;;;6.50;66.40;;;;;;4959318;28;20183;-75
2023/03/15 04:50:18;;;;;;;2.00;1.17;;;6.50;66.30;;;;;;4958699;28;21013;-75
2023/03/15 04:52:44;;;;;;;2.80;1.93;;;6.50;66.30;;;;;;4957169;28;20226;-75
2023/03/15 04:55:10;;;;;;;2.60;1.17;;;6.50;66.70;;;;;;4956348;28;20205;-75
2023/03/15 04:57:36;;;;;;;1.80;1.70;;;6.60;66.90;;;;;;4960395;28;20191;-75
2023/03/15 05:00:11;;;;;;;1.17;1.17;;;6.60;67.00;;;;;;4958514;28;20732;-76
2023/03/15 05:02:40;;;;;;;2.87;1.63;;;6.60;67.20;;;;;;4958127;28;20998;-75
2023/03/15 05:05:10;;;;;;;1.57;1.47;;;6.60;67.30;;;;;;4956634;28;20215;-75
2023/03/15 05:07:36;;;;;;;1.53;1.43;;;6.60;67.20;;;;;;4955327;28;20185;-75
2023/03/15 05:10:03;;;;;;;1.17;1.17;;;6.60;66.90;;;;;;4960609;28;20198;-74
2023/03/15 05:12:30;;;;;;;1.57;1.47;;;6.60;66.70;;;;;;4959152;28;20179;-75
2023/03/15 05:14:56;;;;;;;1.67;1.57;;;6.60;66.40;;;;;;4953273;28;20186;-75
2023/03/15 05:17:22;;;;;;;1.13;1.13;;;6.60;66.20;;;;;;4957906;28;20187;-74
2023/03/15 05:19:48;;;;;;;1.90;1.23;;;6.60;65.90;;;;;;4955270;28;20186;-74
2023/03/15 05:22:14;;;;;;;2.27;1.40;;;6.60;65.80;;;;;;4960180;28;20186;-75
2023/03/15 05:24:39;;;;;;;1.47;1.40;;;6.50;66.10;;;;;;4956100;28;20257;-74
2023/03/15 05:27:05;;;;;;;1.47;1.37;;;6.50;66.10;;;;;;4959020;28;20187;-74
2023/03/15 05:29:31;;;;;;;1.67;1.43;;;6.50;66.00;;;;;;4954063;28;20581;-74
2023/03/15 05:31:57;;;;;;;1.10;1.00;;;6.60;66.10;;;;;;4959019;28;20214;-74
2023/03/15 05:34:23;;;;;;;1.17;1.07;;;6.60;66.60;;;;;;4956282;28;20187;-74
2023/03/15 05:36:52;;;;;;;1.63;1.47;;;6.60;67.20;;;;;;4953794;28;20195;-75
2023/03/15 05:39:18;;;;;;;2.03;1.50;;;6.60;67.80;;;;;;4954129;28;20174;-75
2023/03/15 05:41:43;;;;;;;1.40;1.30;;;6.60;68.20;;;;;;4955582;28;20183;-75
2023/03/15 05:44:09;;;;;;;1.40;1.40;;;6.60;68.40;;;;;;4957889;28;20214;-79
2023/03/15 05:46:35;;;;;;;1.17;1.13;;;6.60;68.90;;;;;;4956191;28;20202;-77
2023/03/15 05:49:01;;;;;;;1.30;1.30;;;6.60;68.90;;;;;;4957806;28;20395;-76
2023/03/15 05:51:26;;;;;;;2.10;1.20;;;6.60;68.80;;;;;;4958707;28;20575;-76
2023/03/15 05:53:52;;;;;;;1.60;1.57;;;6.60;68.70;;;;;;4956915;28;20253;-76
2023/03/15 05:56:17;;;;;;;1.00;1.00;;;6.70;68.90;;;;;;4960499;28;20806;-77
2023/03/15 05:58:43;;;;;;;2.43;1.43;;;6.70;68.90;;;;;;4962127;28;20309;-76
2023/03/15 06:01:09;;;;;;;1.33;1.23;;;6.80;68.80;;;;;;4961609;28;20265;-76
2023/03/15 06:03:34;;;;;;;2.27;1.03;;;6.90;68.60;;;;;;4960167;28;20242;-82
2023/03/15 06:06:00;;;;;;;1.27;1.23;;;7.00;68.60;;;;;;4964794;28;20193;-81
2023/03/15 06:08:26;;;;;;;1.53;1.23;;;7.10;68.40;;;;;;4958766;28;20744;-79
2023/03/15 06:10:52;;;;;;;1.37;1.33;;;7.30;68.30;;;;;;4962467;28;20190;-79
2023/03/15 06:13:17;;;;;;;2.80;1.37;;;7.40;68.00;;;;;;4961254;28;20190;-78
2023/03/15 06:15:46;;;;;;;3.70;1.43;;;7.50;67.00;;;;;;4961247;28;20179;-79
2023/03/15 06:18:12;;;;;;;1.17;1.17;;;7.60;66.80;;;;;;4961040;28;20187;-80
2023/03/15 06:20:39;;;;;;;1.53;1.43;;;7.70;65.10;;;;;;4957023;28;20251;-78
2023/03/15 06:23:05;;;;;;;2.20;1.10;;;7.70;64.70;;;;;;4956601;28;20191;-79
2023/03/15 06:25:30;;;;;;;1.50;1.20;;;7.80;65.40;;;;;;4961445;28;20178;-78
2023/03/15 06:27:56;;;;;;;1.37;1.37;;;7.80;65.30;;;;;;4958006;28;20179;-79
2023/03/15 06:30:22;;;;;;;1.17;1.07;;;7.90;64.50;;;;;;4960209;28;20179;-79
2023/03/15 06:32:47;;;;;;;1.20;1.20;;;8.00;64.40;;;;;;4958955;28;20187;-79
2023/03/15 06:35:13;;;;;;;1.63;1.10;;;8.10;64.30;;;;;;4957727;28;20672;-80
2023/03/15 06:37:40;;;;;;;1.23;1.23;;;8.20;64.40;;;;;;4959683;28;20548;-79
2023/03/15 06:40:07;;;;;;;0.87;0.87;;;8.40;64.20;;;;;;4955420;28;20206;-79
2023/03/15 06:42:33;;;;;;;2.47;1.10;;;8.60;64.00;;;;;;4973581;28;20307;-79
2023/03/15 06:45:00;;;;;;;1.37;1.33;;;8.70;63.40;;;;;;4974230;28;20227;-79
2023/03/15 06:47:25;;;;;;;1.37;1.37;;;8.80;63.10;;;;;;4985279;28;20190;-78
2023/03/15 06:49:51;;;;;;;1.33;1.33;;;8.90;62.80;;;;;;4983391;28;20182;-78
2023/03/15 06:52:17;;;;;;;1.43;1.43;;;9.00;63.00;;;;;;4986178;28;20196;-78
2023/03/15 06:54:43;;;;;;;1.80;1.33;;;9.10;62.70;;;;;;4987482;28;20566;-79
2023/03/15 06:57:09;;;;;;;4.10;2.13;;;9.20;62.00;;;;;;4976458;28;20230;-79
2023/03/15 06:59:35;;;;;;;1.53;1.53;;;9.20;61.60;;;;;;4963435;28;20198;-80
2023/03/15 07:02:00;;;;;;;1.90;1.80;;;9.20;61.70;;;;;;4966035;28;20201;-79
2023/03/15 07:04:26;;;;;;;1.40;1.30;;;9.20;61.50;;;;;;4963112;28;20222;-81
2023/03/15 07:06:52;;;;;;;1.50;1.47;;;9.20;61.50;;;;;;4962459;28;20220;-81
2023/03/15 07:09:18;;;;;;;1.70;1.60;;;9.30;61.60;;;;;;4947888;28;20199;-80
2023/03/15 07:11:44;;;;;;;1.93;1.83;;;9.40;61.70;;;;;;4964364;28;20183;-79
2023/03/15 07:14:10;;;;;;;2.00;1.90;;;9.50;61.50;;;;;;4967202;28;20182;-79
2023/03/15 07:16:35;;;;;;;2.10;1.97;;;9.60;61.40;;;;;;4964859;28;20194;-78
2023/03/15 07:19:01;;;;;;;1.30;1.30;;;9.80;61.10;;;;;;4962446;28;20578;-80
2023/03/15 07:21:27;;;;;;;2.67;1.97;;;9.90;60.60;;;;;;4965764;28;20201;-79
2023/03/15 07:23:53;;;;;;;3.10;1.53;;;10.10;60.30;;;;;;4967784;28;20218;-79
2023/03/15 07:26:19;;;;;;;3.13;1.90;;;10.30;59.90;;;;;;4965322;28;20672;-80
2023/03/15 07:28:45;;;;;;;1.87;1.70;;;10.50;59.80;;;;;;4964488;28;20186;-77
2023/03/15 07:31:11;;;;;;;1.88;1.77;;;10.70;59.20;;;;;;4966172;28;20182;-77
2023/03/15 07:33:38;;;;;;;1.73;1.63;;;10.90;59.10;;;;;;4964940;28;20217;-78
2023/03/15 07:36:05;;;;;;;4.82;1.85;;;11.00;58.70;;;;;;4967423;28;20273;-78
2023/03/15 07:38:31;;;;;;;1.83;1.52;;;11.20;58.40;;;;;;4962151;28;21014;-78
2023/03/15 07:41:00;;;;;;;2.53;1.92;;;11.40;57.80;;;;;;4946587;28;20179;-76
2023/03/15 07:43:26;;;;;;;1.80;1.70;;;11.60;57.40;;;;;;4965272;28;20222;-79
2023/03/15 07:45:52;;;;;;;1.92;1.83;;;11.70;57.10;;;;;;4962684;28;20210;-77
2023/03/15 07:48:17;;;;;;;1.98;1.85;;;11.90;57.10;;;;;;4962687;28;20186;-78
2023/03/15 07:50:44;;;;;;;2.15;1.98;;;12.00;57.30;;;;;;4965578;28;20186;-78
2023/03/15 07:53:09;;;;;;;1.95;1.83;;;12.10;57.30;;;;;;4965608;28;20298;-78
2023/03/15 07:55:35;;;;;;;1.88;1.83;;;12.30;57.10;;;;;;4964671;28;20337;-78
2023/03/15 07:58:02;;;;;;;1.95;1.85;;;12.40;56.50;;;;;;4948500;28;20574;-78
2023/03/15 08:00:28;;;;;;;1.77;1.52;;;12.60;56.60;;;;;;4964065;28;20194;-79
2023/03/15 08:02:54;;;;;;;2.30;1.38;;;12.80;56.10;;;;;;4960012;28;20186;-78
2023/03/15 08:05:20;;;;;;;2.00;1.90;;;13.00;55.80;;;;;;4965029;28;20182;-79
2023/03/15 08:07:47;;;;;;;2.40;1.92;;;13.20;56.00;;;;;;4963985;28;20187;-79
2023/03/15 08:10:14;;;;;;;2.03;1.92;;;13.40;55.50;;;;;;4964934;28;20186;-79
2023/03/15 08:12:41;;;;;;;3.50;1.95;;;13.70;54.80;;;;;;4964677;28;20182;-78
2023/03/15 08:15:10;;;;;;;1.35;1.25;;;14.00;54.30;;;;;;4961492;28;20214;-78
2023/03/15 08:17:36;;;;;;;3.25;1.40;;;14.50;54.20;;;;;;4941466;28;20214;-79
2023/03/15 08:20:03;;;;;;;1.35;1.25;;;14.80;53.00;;;;;;4946558;28;20984;-78
2023/03/15 08:22:29;;;;;;;1.58;1.45;;;15.00;52.50;;;;;;4965393;28;20225;-78
2023/03/15 08:24:56;;;;;;;1.25;1.25;;;15.30;52.40;;;;;;4962667;28;20775;-79
2023/03/15 08:27:25;;;;;;;1.10;1.10;;;15.90;51.40;;;;;;4959312;28;20178;-79
2023/03/15 08:29:53;;;;;;;1.10;1.10;;;16.50;51.10;;;;;;4963998;28;20699;-79
2023/03/15 08:32:20;;;;;;;1.25;1.17;;;16.90;49.80;;;;;;4963019;28;20966;-78
2023/03/15 08:34:46;;;;;;;1.63;1.15;;;17.20;49.20;;;;;;4963858;28;20277;-78
2023/03/15 08:37:12;;;;;;;1.02;1.02;;;17.30;48.80;;;;;;4961355;28;20273;-79
2023/03/15 08:39:39;;;;;;;1.13;1.10;;;17.20;48.30;;;;;;4961569;28;20250;-77
2023/03/15 08:42:05;;;;;;;1.08;1.08;;;17.20;49.10;;;;;;4959209;28;20273;-77
2023/03/15 08:44:31;;;;;;;1.45;1.35;;;17.30;49.60;;;;;;4957769;28;20226;-80
2023/03/15 08:46:57;;;;;;;1.80;1.63;;;17.60;49.30;;;;;;4959702;28;20190;-77
2023/03/15 08:49:23;;;;;;;1.48;1.48;;;18.10;49.20;;;;;;4946181;28;20191;-78
2023/03/15 08:51:48;;;;;;;3.72;1.40;;;18.80;48.80;;;;;;4958813;28;20672;-79
2023/03/15 08:54:14;;;;;;;1.10;1.10;;;19.40;48.00;;;;;;4943554;28;20263;-79
2023/03/15 08:56:40;;;;;;;2.40;2.20;;;19.80;47.50;;;;;;4963869;28;20620;-78
2023/03/15 08:59:07;;;;;;;4.30;1.98;;;19.80;46.90;;;;;;4964136;28;20182;-79
2023/03/15 09:01:33;;;;;;;1.48;1.48;;;19.70;47.10;;;;;;4965500;28;20273;-79
2023/03/15 09:04:00;;;;;;;1.50;1.48;;;19.40;46.90;;;;;;4963259;28;20584;-79
2023/03/15 09:06:26;;;;;;;2.03;1.92;;;18.90;47.00;;;;;;4961430;28;20178;-78
2023/03/15 09:08:52;;;;;;;1.83;1.73;;;18.30;47.70;;;;;;4960818;28;20194;-77
2023/03/15 09:11:19;;;;;;;1.67;1.58;;;18.10;49.50;;;;;;4963327;28;20179;-78
2023/03/15 09:13:44;;;;;;;1.90;1.80;;;18.20;49.20;;;;;;4958294;28;20740;-78
2023/03/15 09:16:10;;;;;;;3.65;1.83;;;18.20;49.10;;;;;;4960778;28;20181;-78
2023/03/15 09:18:36;;;;;;;1.42;1.33;;;18.20;48.90;;;;;;4961427;28;20554;-78
2023/03/15 09:21:01;;;;;;;2.53;1.92;;;18.00;48.60;;;;;;4945046;28;20244;-78
2023/03/15 09:23:27;;;;;;;1.65;1.52;;;17.80;49.00;;;;;;4964925;28;20727;-77
2023/03/15 09:25:53;;;;;;;1.75;1.65;;;17.50;49.60;;;;;;4961477;28;20281;-78
2023/03/15 09:28:18;;;;;;;1.95;1.50;;;17.30;49.60;;;;;;4961960;28;20178;-77
2023/03/15 09:30:44;;;;;;;1.75;1.65;;;17.00;49.80;;;;;;4962503;28;20660;-77
2023/03/15 09:33:13;;;;;;;1.13;1.13;;;16.80;50.20;;;;;;4962308;28;20186;-77
2023/03/15 09:35:39;;;;;;;2.42;1.90;;;16.50;50.60;;;;;;4957496;28;20213;-77
2023/03/15 09:38:05;;;;;;;1.73;1.65;;;16.20;50.90;;;;;;4960288;28;20273;-78
2023/03/15 09:40:43;;;;;;;1.85;1.45;;;16.10;51.00;;;;;;4959582;28;20333;-79
2023/03/15 09:43:34;;;;;;;1.48;1.38;;;16.10;51.70;;;;;;4963538;28;20182;-78
2023/03/15 09:46:22;;;;;;;2.33;1.55;;;16.50;52.00;;;;;;4960753;28;20339;-78
2023/03/15 09:49:06;;;;;;;1.98;1.38;;;17.10;51.40;;;;;;4963380;28;20226;-79
2023/03/15 09:51:54;;;;;;;1.60;1.50;;;17.50;50.50;;;;;;4961674;28;20186;-79
2023/03/15 09:54:26;;;;;;;1.55;1.45;;;17.80;49.60;;;;;;4965089;28;20376;-79
2023/03/15 09:57:01;;;;;;;1.40;1.40;;;17.80;49.30;;;;;;4959986;28;20187;-79
2023/03/15 09:59:49;;;;;;;4.45;2.00;;;17.70;49.50;;;;;;4962401;28;20663;-79
2023/03/15 10:02:28;;;;;;;1.70;1.60;;;17.30;49.90;;;;;;4963037;28;20182;-79
2023/03/15 10:05:09;;;;;;;1.45;1.40;;;17.00;50.30;;;;;;4960895;28;20222;-79
2023/03/15 10:07:35;;;;;;;3.25;2.33;;;16.80;50.50;;;;;;4962546;28;20189;-79
2023/03/15 10:10:03;;;;;;;2.45;2.25;;;16.60;50.60;;;;;;4945889;28;20191;-78
2023/03/15 10:12:40;;;;;;;2.50;2.30;;;16.40;50.90;;;;;;4960367;28;20602;-78
2023/03/15 10:15:52;;;;;;;6.10;2.05;;;16.10;51.30;;;;;;4963387;28;20189;-79
2023/03/15 10:18:42;;;;;;;2.35;2.15;;;16.00;51.50;;;;;;4868244;29;20204;-78
2023/03/15 10:21:37;;;;;;;2.22;2.10;;;15.80;52.10;;;;;;4864803;29;20762;-77
2023/03/15 10:24:04;;;;;;;1.98;1.70;;;15.70;52.30;;;;;;4850883;29;20746;-77
2023/03/15 10:26:36;;;;;;;2.88;1.80;;;15.70;52.60;;;;;;4868268;29;20241;-75
2023/03/15 10:29:09;;;;;;;1.42;1.38;;;15.80;52.20;;;;;;4867714;29;20217;-75
2023/03/15 10:31:39;;;;;;;1.75;1.25;;;15.90;52.00;;;;;;4868000;29;20190;-78
2023/03/15 10:34:05;;;;;;;1.85;1.33;;;15.80;52.10;;;;;;4872384;29;20189;-80
2023/03/15 10:36:30;;;;;;;1.35;1.25;;;15.80;52.30;;;;;;4871577;29;21457;-77
2023/03/15 10:38:57;;;;;;;2.83;1.23;;;15.70;52.10;;;;;;4867610;29;20669;-77
2023/03/15 10:41:38;;;;;;;5.45;1.30;;;15.50;51.80;;;;;;4873180;29;20791;-77
2023/03/15 10:44:06;;;;;;;1.17;1.08;;;15.30;52.10;;;;;;4874792;29;20293;-77
2023/03/15 10:46:34;;;;;;;1.25;1.15;;;14.90;53.00;;;;;;4877614;29;20206;-77
2023/03/15 10:49:07;;;;;;;1.60;1.50;;;14.80;53.60;;;;;;4916899;28;20636;-77
2023/03/15 10:51:40;;;;;;;1.42;1.40;;;14.60;53.90;;;;;;4965347;28;20213;-77
2023/03/15 10:54:14;;;;;;;1.55;1.55;;;14.50;53.60;;;;;;4963852;28;20218;-77
2023/03/15 10:56:48;;;;;;;2.70;1.48;;;14.50;54.30;;;;;;4967447;28;20181;-78
2023/03/15 10:59:25;;;;;;;1.73;1.42;;;14.40;54.40;;;;;;4967723;28;20171;-77
2023/03/15 11:02:06;;;;;;;1.83;1.15;;;14.30;54.00;;;;;;4967587;28;20709;-78
2023/03/15 11:04:31;;;;;;;2.20;1.40;;;14.20;54.20;;;;;;4963061;28;20751;-76
2023/03/15 11:06:57;;;;;;;1.58;1.48;;;14.10;54.20;;;;;;4966719;28;20179;-77
2023/03/15 11:09:36;;;;;;;1.67;1.20;;;14.00;54.60;;;;;;4967009;28;20233;-76
2023/03/15 11:12:08;;;;;;;1.33;1.33;;;14.00;54.80;;;;;;4965240;28;20668;-78
2023/03/15 11:14:39;;;;;;;3.65;1.80;;;13.90;55.00;;;;;;4965076;28;20612;-78
2023/03/15 11:17:13;;;;;;;1.27;1.27;;;14.00;55.20;;;;;;4966335;28;20194;-78
2023/03/15 11:19:43;;;;;;;1.52;1.42;;;14.00;55.10;;;;;;4965058;28;20184;-77
2023/03/15 11:22:12;;;;;;;1.88;1.77;;;13.90;55.40;;;;;;4967556;28;20270;-80
2023/03/15 11:24:38;;;;;;;3.30;1.55;;;13.80;55.00;;;;;;4962858;28;20590;-79
2023/03/15 11:27:12;;;;;;;3.25;2.10;;;13.70;54.70;;;;;;4968697;28;20729;-79
2023/03/15 11:29:41;;;;;;;1.60;1.27;;;13.60;54.60;;;;;;4968451;28;20261;-78
2023/03/15 11:32:15;;;;;;;1.45;1.38;;;13.50;55.00;;;;;;4967516;28;20321;-80
2023/03/15 11:35:03;;;;;;;2.30;1.65;;;13.40;55.00;;;;;;4950131;28;20579;-78
2023/03/15 11:37:51;;;;;;;1.30;1.30;;;13.30;55.30;;;;;;4965184;28;20179;-77
2023/03/15 11:40:32;;;;;;;2.53;1.63;;;13.20;55.60;;;;;;4964748;28;20187;-79
2023/03/15 11:43:09;;;;;;;1.50;1.40;;;13.10;55.90;;;;;;4965760;28;20197;-78
2023/03/15 11:45:55;;;;;;;1.67;1.55;;;13.10;56.10;;;;;;4965140;28;20320;-78
2023/03/15 11:48:35;;;;;;;1.70;1.60;;;13.20;56.50;;;;;;4967800;28;20190;-78
2023/03/15 11:51:01;;;;;;;2.15;1.65;;;13.20;57.10;;;;;;4966799;28;20189;-79
2023/03/15 11:53:35;;;;;;;2.03;1.50;;;13.20;57.10;;;;;;4962331;28;20190;-79
2023/03/15 11:56:44;;;;;;;1.50;1.50;;;13.30;57.30;;;;;;4959836;28;20231;-77
2023/03/15 11:59:12;;;;;;;1.35;1.25;;;13.20;58.20;;;;;;4964705;28;20204;-77
2023/03/15 12:01:48;;;;;;;1.60;1.50;;;13.20;58.80;;;;;;4961215;28;20182;-77
2023/03/15 12:04:28;;;;;;;1.73;1.63;;;13.00;58.90;;;;;;4946926;28;20253;-77
2023/03/15 12:07:04;;;;;;;3.80;1.42;;;13.00;59.50;;;;;;4946182;28;21065;-78
2023/03/15 12:09:35;;;;;;;1.83;1.73;;;12.90;60.30;;;;;;4960873;28;20273;-77
2023/03/15 12:12:03;;;;;;;3.10;1.50;;;12.80;61.10;;;;;;4961023;28;20179;-78
2023/03/15 12:14:36;;;;;;;1.48;1.48;;;12.70;60.00;;;;;;4958174;28;20191;-77
2023/03/15 12:17:25;;;;;;;1.65;1.55;;;12.70;59.90;;;;;;4962153;28;20719;-77
2023/03/15 12:20:10;;;;;;;1.65;1.50;;;12.60;61.40;;;;;;4959863;28;20205;-77
2023/03/15 12:22:42;;;;;;;1.83;1.73;;;12.50;61.10;;;;;;4964231;28;20201;-77
2023/03/15 12:25:24;;;;;;;3.60;1.70;;;12.50;61.20;;;;;;4964853;28;20628;-77
2023/03/15 12:27:55;;;;;;;1.70;1.48;;;12.40;61.80;;;;;;4962744;28;20174;-78
2023/03/15 12:30:40;;;;;;;1.98;1.70;;;12.30;62.00;;;;;;4961723;28;20617;-79
2023/03/15 12:33:20;;;;;;;1.90;1.40;;;12.30;62.10;;;;;;4957572;28;20197;-77
2023/03/15 12:35:47;;;;;;;2.85;1.38;;;12.40;62.30;;;;;;4964840;28;20313;-77
2023/03/15 12:38:22;;;;;;;3.83;1.35;;;12.40;62.90;;;;;;4962319;28;20186;-77
2023/03/15 12:40:54;;;;;;;1.75;1.35;;;12.40;61.90;;;;;;4964333;28;20178;-77
2023/03/15 12:43:44;;;;;;;1.45;1.23;;;12.30;62.50;;;;;;4964781;28;20179;-77
2023/03/15 12:46:37;;;;;;;1.27;1.27;;;12.20;63.20;;;;;;4964255;28;20230;-77
2023/03/15 12:49:11;;;;;;;1.90;1.80;;;12.20;64.00;;;;;;4961532;28;20330;-78
2023/03/15 12:51:53;;;;;;;1.65;1.65;;;12.10;63.40;;;;;;4963886;28;20185;-77
2023/03/15 12:54:22;;;;;;;1.50;1.45;;;12.10;63.20;;;;;;4965312;28;20214;-78
2023/03/15 12:56:54;;;;;;;2.60;1.50;;;12.10;63.30;;;;;;4962182;28;20185;-78
2023/03/15 12:59:46;;;;;;;2.60;1.50;;;12.10;63.00;;;;;;4961008;28;20284;-77
2023/03/15 13:02:31;;;;;;;1.48;1.38;;;12.10;63.40;;;;;;4865587;29;20775;-77
2023/03/15 13:05:09;;;;;;;3.30;1.55;;;12.10;62.50;;;;;;4865577;29;20236;-78